首页
METAR-TAF:

METAR-TAF

机场 :

弗罗茨瓦夫, 波兰

纬度: 51-06N, 经度: 016-53E, 海拔: 120米

当前天气观测

该预报发布于40分钟前的08:30 UTC
风速3节,风向东转东南,在南转南东之间变化
温度 27°C
湿度 62%
气压 1022 hPa
能见度10公里或以上
1500米以下无云,无积雨云

METAR: EPWR 080830Z 12003KT 080V150 CAVOK 27/19 Q1022

时间: 11:10 (09:10 UTC)

预报

该预报发布于40分钟前的08:30 UTC
预报有效从08日的 09点(UTC)到 09日的 09点(UTC)
风速4节,风向
能见度10公里或以上
1500米以下无云,无积雨云
几率 30% :
短暂存在
从 08日的 15点(UTC)到 08日的 20点(UTC)
散云层高于3000英尺, 塔状积云.

TAF: EPWR 080830Z 0809/0909 10004KT CAVOK PROB30 TEMPO 0815/0820 SCT030TCU

超过4000个机场的气象观测和天气预报(METAR&TAF报告)。

可查询的气象台以黄色和红色小点在地图上表示。

将鼠标移到小点上方,可查看气象台名称。

然后点击查看天气观测和预报。

如需切换地图:点击带黑十字的绿色按钮放大地图;点击带横线的绿色按钮缩小地图;或者点击绿色箭头查看邻近地区的地图。


METAR-TAF: